Terminal Aerodrome Forecast
Issued by NWS

Home | Current Version | Previous Version | Text Only | Print | Product List | Glossary On
Versions: 1 2 3 4 5 6 7 8 9 10 11 12 13 14 15 16 17 18 19 20 21 22 23 24 25 26 27 28 29
000
FTUS44 KFWD 272223 AAC
TAFDAL
TAF AMD
KDAL 272223Z 2722/2818 05009KT P6SM -SHRA VCTS SCT060CB BKN120
     FM280000 16007KT P6SM SCT050 SCT200
     FM281100 18008KT P6SM VCSH BKN040
     FM281600 20007KT P6SM SCT050 SCT150=

USA.gov is the U.S. government's official web portal to all federal, state and local government web resources and services.